Raynham, Massachusetts
Current Conditions -  °F | °C
As of 5:52 PM on Friday 28 Nov 2014 (Local Time) from KTAN Reporting Station
Scattered Clouds Scattered Clouds  
Wind Chill: 26°   Ceiling: Unl
Heat Index: 32°   Visibility: 10mi
Dew Point: 17°   Wind: 6mph
Humidity: 54%   Direction: 310°NW
Pressure: 30.14"   Gusts: NA
Location:  41.95°N, 71.07°W
Report Text: KTAN 282252Z AUTO 31005KT 10SM SCT045 00/M08 A3014 RMK AO2 SLP205 T00001083
Loading
Personal Weather Stations






























Interactive Weather Map New forecast layout! Learn more

10-Day Weather Forecast

Advertisements
Track Severe Weather on mobile